createdAt,value
2017-08-19T00:00:03.691Z,4.43
2017-08-19T00:00:07.932Z,4.60
2017-08-19T00:00:12.180Z,4.50
2017-08-19T00:00:16.447Z,4.60
2017-08-19T00:00:21.413Z,4.70
2017-08-19T00:00:26.413Z,4.87
2017-08-19T00:00:30.662Z,5.10
2017-08-19T00:00:34.893Z,5.10
2017-08-19T00:00:39.139Z,5.20
2017-08-19T00:00:44.137Z,5.23
2017-08-19T00:00:48.423Z,5.23
2017-08-19T00:00:52.669Z,5.10
2017-08-19T00:00:56.929Z,5.10
2017-08-19T00:01:01.160Z,5.10
2017-08-19T00:01:06.231Z,5.00
2017-08-19T00:01:11.367Z,5.13
2017-08-19T00:01:16.411Z,5.30
2017-08-19T00:01:22.304Z,5.10
2017-08-19T00:01:26.545Z,5.10
2017-08-19T00:01:30.774Z,5.10
2017-08-19T00:01:35.049Z,5.00
2017-08-19T00:01:39.295Z,4.90
2017-08-19T00:01:43.530Z,4.90
2017-08-19T00:01:47.778Z,5.05
2017-08-19T00:01:52.028Z,5.20
2017-08-19T00:01:56.292Z,5.17
2017-08-19T00:02:00.550Z,5.20
2017-08-19T00:02:05.564Z,5.20
2017-08-19T00:02:09.798Z,5.07
2017-08-19T00:02:14.030Z,4.83
2017-08-19T00:02:18.283Z,4.70
2017-08-19T00:02:22.517Z,4.75
2017-08-19T00:02:26.773Z,4.50
2017-08-19T00:02:31.779Z,4.40
2017-08-19T00:02:36.777Z,4.30
2017-08-19T00:02:41.085Z,4.20
2017-08-19T00:02:45.322Z,4.10
2017-08-19T00:02:49.563Z,4.00
2017-08-19T00:02:53.789Z,4.10
2017-08-19T00:02:58.799Z,4.00
2017-08-19T00:03:03.056Z,4.03
2017-08-19T00:03:07.281Z,4.20
2017-08-19T00:03:11.541Z,4.15
2017-08-19T00:03:15.785Z,4.20
2017-08-19T00:03:20.060Z,4.20
2017-08-19T00:03:24.286Z,4.10
2017-08-19T00:03:28.518Z,4.10
2017-08-19T00:03:33.560Z,4.13
2017-08-19T00:03:37.815Z,4.20
2017-08-19T00:03:42.540Z,4.20
2017-08-19T00:03:47.525Z,4.30
2017-08-19T00:03:51.776Z,4.27
2017-08-19T00:03:56.010Z,4.20
2017-08-19T00:04:00.276Z,4.45
2017-08-19T00:04:04.503Z,4.50
2017-08-19T00:04:08.746Z,4.40
2017-08-19T00:04:12.990Z,4.50
2017-08-19T00:04:17.213Z,4.55
2017-08-19T00:04:21.490Z,4.50
2017-08-19T00:04:25.710Z,4.40
2017-08-19T00:04:29.971Z,4.30
2017-08-19T00:04:34.207Z,4.30
2017-08-19T00:04:38.434Z,4.40
2017-08-19T00:04:42.692Z,4.47
2017-08-19T00:04:46.937Z,4.50
2017-08-19T00:04:51.177Z,4.45
2017-08-19T00:04:55.423Z,4.70
2017-08-19T00:04:59.675Z,4.60
2017-08-19T00:05:03.921Z,4.70
2017-08-19T00:05:08.150Z,4.80
2017-08-19T00:05:13.300Z,4.80
2017-08-19T00:05:17.546Z,4.80
2017-08-19T00:05:21.781Z,4.80
2017-08-19T00:05:26.023Z,4.95
2017-08-19T00:05:30.263Z,5.10
2017-08-19T00:05:35.280Z,5.15
2017-08-19T00:05:39.527Z,5.17
2017-08-19T00:05:43.762Z,5.00
2017-08-19T00:05:48.008Z,5.00
2017-08-19T00:05:52.248Z,4.87
2017-08-19T00:05:56.487Z,4.70
2017-08-19T00:06:01.506Z,4.55
2017-08-19T00:06:05.746Z,4.37
2017-08-19T00:06:09.969Z,4.20
2017-08-19T00:06:14.219Z,4.10
2017-08-19T00:06:18.458Z,4.10
2017-08-19T00:06:22.712Z,4.10
2017-08-19T00:06:26.982Z,4.05
2017-08-19T00:06:31.211Z,4.20
2017-08-19T00:06:35.446Z,4.10
2017-08-19T00:06:39.687Z,4.10
2017-08-19T00:06:44.683Z,4.10
2017-08-19T00:06:48.925Z,4.00
2017-08-19T00:06:53.192Z,4.00
2017-08-19T00:06:57.413Z,4.00
2017-08-19T00:07:01.641Z,4.00
2017-08-19T00:07:05.898Z,4.03
2017-08-19T00:07:10.121Z,4.20
2017-08-19T00:07:14.357Z,4.20
2017-08-19T00:07:18.604Z,4.30
2017-08-19T00:07:23.611Z,4.30
2017-08-19T00:07:27.856Z,4.30
2017-08-19T00:07:32.083Z,4.40
2017-08-19T00:07:36.317Z,4.50
2017-08-19T00:07:41.326Z,4.55
2017-08-19T00:07:45.606Z,4.77
2017-08-19T00:07:49.857Z,4.90
2017-08-19T00:07:54.115Z,4.85
2017-08-19T00:07:58.359Z,4.70
2017-08-19T00:08:02.616Z,4.75
2017-08-19T00:08:06.857Z,4.70
2017-08-19T00:08:11.092Z,4.55
2017-08-19T00:08:15.321Z,4.60
2017-08-19T00:08:20.352Z,4.60
2017-08-19T00:08:24.633Z,4.70
2017-08-19T00:08:28.907Z,4.50
2017-08-19T00:08:33.147Z,4.50
2017-08-19T00:08:38.159Z,4.50
2017-08-19T00:08:42.407Z,4.47
2017-08-19T00:08:46.653Z,4.40
2017-08-19T00:08:51.688Z,4.45
2017-08-19T00:08:56.697Z,4.67
2017-08-19T00:09:01.739Z,4.80
2017-08-19T00:09:05.992Z,4.80
2017-08-19T00:09:10.222Z,4.90
2017-08-19T00:09:14.473Z,5.00
2017-08-19T00:09:18.728Z,4.90
2017-08-19T00:09:22.982Z,4.80
2017-08-19T00:09:27.217Z,4.80
2017-08-19T00:09:32.223Z,4.83
2017-08-19T00:09:36.479Z,4.80
2017-08-19T00:09:40.724Z,4.80
2017-08-19T00:09:44.954Z,4.80
2017-08-19T00:09:49.189Z,4.95
2017-08-19T00:09:53.429Z,4.93
2017-08-19T00:09:58.434Z,4.90
2017-08-19T00:10:02.671Z,4.80
2017-08-19T00:10:07.372Z,4.95
2017-08-19T00:10:11.615Z,5.00
2017-08-19T00:10:15.846Z,5.15
2017-08-19T00:10:20.082Z,5.20
2017-08-19T00:10:24.351Z,5.30
2017-08-19T00:10:28.589Z,5.45
2017-08-19T00:10:32.852Z,5.40
2017-08-19T00:10:37.868Z,5.40
2017-08-19T00:10:42.861Z,5.50
2017-08-19T00:10:47.111Z,5.47
2017-08-19T00:10:51.365Z,5.10
2017-08-19T00:10:55.601Z,5.20
2017-08-19T00:10:59.853Z,5.20
2017-08-19T00:11:04.159Z,5.10
2017-08-19T00:11:08.432Z,5.10
2017-08-19T00:11:12.630Z,5.10
2017-08-19T00:11:16.900Z,4.90
2017-08-19T00:11:21.940Z,5.00
2017-08-19T00:11:26.185Z,4.93
2017-08-19T00:11:30.424Z,4.90
2017-08-19T00:11:34.645Z,4.90
2017-08-19T00:11:38.877Z,4.90
2017-08-19T00:11:43.136Z,5.00
2017-08-19T00:11:47.376Z,4.90
2017-08-19T00:11:51.605Z,4.90
2017-08-19T00:11:56.602Z,4.70
2017-08-19T00:12:00.862Z,4.73
2017-08-19T00:12:05.108Z,4.80
2017-08-19T00:12:09.339Z,4.80
2017-08-19T00:12:13.561Z,4.70
2017-08-19T00:12:17.809Z,4.67
2017-08-19T00:12:22.857Z,4.50
2017-08-19T00:12:27.846Z,4.43
2017-08-19T00:12:32.863Z,4.40
2017-08-19T00:12:37.108Z,4.30
2017-08-19T00:12:41.335Z,4.40
2017-08-19T00:12:45.612Z,4.47
2017-08-19T00:12:49.857Z,4.55
2017-08-19T00:12:54.098Z,4.85
2017-08-19T00:12:58.909Z,4.90
2017-08-19T00:13:03.141Z,4.93
2017-08-19T00:13:07.393Z,5.00
2017-08-19T00:13:11.656Z,5.13
2017-08-19T00:13:15.984Z,5.20
2017-08-19T00:13:20.977Z,5.20
2017-08-19T00:13:25.209Z,5.37
2017-08-19T00:13:29.464Z,5.50
2017-08-19T00:13:33.719Z,5.60
2017-08-19T00:13:37.964Z,5.55
2017-08-19T00:13:42.197Z,5.30
2017-08-19T00:13:47.219Z,5.23
2017-08-19T00:13:52.231Z,5.20
2017-08-19T00:13:57.240Z,4.90
2017-08-19T00:14:02.283Z,4.90
2017-08-19T00:14:06.521Z,4.80
2017-08-19T00:14:10.757Z,4.65
2017-08-19T00:14:15.745Z,4.60
2017-08-19T00:14:20.024Z,4.60
2017-08-19T00:14:24.253Z,4.57
2017-08-19T00:14:28.486Z,4.30
2017-08-19T00:14:32.732Z,4.30
2017-08-19T00:14:36.961Z,4.30
2017-08-19T00:14:41.215Z,4.33
2017-08-19T00:14:45.464Z,4.40
2017-08-19T00:14:49.689Z,4.40
2017-08-19T00:14:53.939Z,4.45
2017-08-19T00:14:58.193Z,4.50
2017-08-19T00:15:02.438Z,4.50
2017-08-19T00:15:17.001Z,4.40
2017-08-19T00:15:21.233Z,4.43
2017-08-19T00:15:25.478Z,4.40
2017-08-19T00:15:29.751Z,4.30
2017-08-19T00:15:33.970Z,4.40
2017-08-19T00:15:38.224Z,4.50
2017-08-19T00:15:43.253Z,4.40
2017-08-19T00:15:48.251Z,4.50
2017-08-19T00:15:53.259Z,4.60
2017-08-19T00:15:58.254Z,4.60
2017-08-19T00:16:02.488Z,4.50
2017-08-19T00:16:06.733Z,4.40
2017-08-19T00:16:10.973Z,4.50
2017-08-19T00:16:15.987Z,4.60
2017-08-19T00:16:20.228Z,4.63
2017-08-19T00:16:24.453Z,4.80
2017-08-19T00:16:28.712Z,5.10
2017-08-19T00:16:32.978Z,5.10
2017-08-19T00:16:37.217Z,5.10
2017-08-19T00:16:41.451Z,5.20
2017-08-19T00:16:45.681Z,5.27
2017-08-19T00:16:49.913Z,5.25
2017-08-19T00:16:54.170Z,5.30
2017-08-19T00:16:58.392Z,5.20
2017-08-19T00:17:02.636Z,5.10
2017-08-19T00:17:06.853Z,5.20
2017-08-19T00:17:11.095Z,5.30
2017-08-19T00:17:16.089Z,5.40
2017-08-19T00:17:20.332Z,5.40
2017-08-19T00:17:24.584Z,5.33
2017-08-19T00:17:28.825Z,5.25
2017-08-19T00:17:33.091Z,5.25
2017-08-19T00:17:38.527Z,5.20
2017-08-19T00:17:42.738Z,5.20
2017-08-19T00:17:47.755Z,5.10
2017-08-19T00:17:52.004Z,5.00
2017-08-19T00:17:56.240Z,5.10
2017-08-19T00:18:00.483Z,5.30
2017-08-19T00:18:04.714Z,5.30
2017-08-19T00:18:08.963Z,5.25
2017-08-19T00:18:13.190Z,5.20
2017-08-19T00:18:17.433Z,5.10
2017-08-19T00:18:21.652Z,5.10
2017-08-19T00:18:25.893Z,5.10
2017-08-19T00:18:30.156Z,5.25
2017-08-19T00:18:34.397Z,5.30
2017-08-19T00:18:38.643Z,5.40
2017-08-19T00:18:43.656Z,5.50
2017-08-19T00:18:47.892Z,5.50
2017-08-19T00:18:52.167Z,5.60
2017-08-19T00:18:57.757Z,5.50
2017-08-19T00:19:02.562Z,5.50
2017-08-19T00:19:06.803Z,5.67
2017-08-19T00:19:11.067Z,5.80
2017-08-19T00:19:15.351Z,5.90
2017-08-19T00:19:19.594Z,5.90
2017-08-19T00:19:24.157Z,5.85
2017-08-19T00:19:28.401Z,5.70
2017-08-19T00:19:35.138Z,5.70
2017-08-19T00:19:39.421Z,5.54
2017-08-19T00:19:43.667Z,5.40
2017-08-19T00:19:48.704Z,5.40
2017-08-19T00:19:52.943Z,5.47
2017-08-19T00:19:57.177Z,5.40
2017-08-19T00:20:02.213Z,5.50
2017-08-19T00:20:06.479Z,5.50
2017-08-19T00:20:10.690Z,5.40
2017-08-19T00:20:14.943Z,5.40
2017-08-19T00:20:19.169Z,5.40
2017-08-19T00:20:23.398Z,5.40
2017-08-19T00:20:27.649Z,5.60
2017-08-19T00:20:31.915Z,5.60
2017-08-19T00:20:36.129Z,5.70
2017-08-19T00:20:40.362Z,5.70
2017-08-19T00:20:44.649Z,5.70
2017-08-19T00:20:48.879Z,5.63
2017-08-19T00:20:53.124Z,5.60
2017-08-19T00:20:57.588Z,5.50
2017-08-19T00:21:01.823Z,5.50
2017-08-19T00:21:06.119Z,5.50
2017-08-19T00:21:10.345Z,5.40
2017-08-19T00:21:14.629Z,5.20
2017-08-19T00:21:18.871Z,5.30
2017-08-19T00:21:23.149Z,5.50
2017-08-19T00:21:27.410Z,5.30
2017-08-19T00:21:31.666Z,5.23
2017-08-19T00:21:38.021Z,5.20
2017-08-19T00:21:42.246Z,5.22
2017-08-19T00:21:47.273Z,5.10
2017-08-19T00:21:51.559Z,5.10
2017-08-19T00:21:55.802Z,5.20
2017-08-19T00:22:00.043Z,5.20
2017-08-19T00:22:04.280Z,5.00
2017-08-19T00:22:08.539Z,5.03
2017-08-19T00:22:12.775Z,5.00
2017-08-19T00:22:17.837Z,5.05
2017-08-19T00:22:22.562Z,4.70
2017-08-19T00:22:26.793Z,4.90
2017-08-19T00:22:32.151Z,4.90
2017-08-19T00:22:36.381Z,4.78
2017-08-19T00:22:41.419Z,4.70
2017-08-19T00:22:45.635Z,4.70
2017-08-19T00:22:50.629Z,4.85
2017-08-19T00:22:54.879Z,4.80
2017-08-19T00:22:59.114Z,5.05
2017-08-19T00:23:03.379Z,5.13
2017-08-19T00:23:07.620Z,5.10
2017-08-19T00:23:13.087Z,5.25
2017-08-19T00:23:18.113Z,5.30
2017-08-19T00:23:22.374Z,5.30
2017-08-19T00:23:26.647Z,5.15
2017-08-19T00:23:41.952Z,5.12
2017-08-19T00:23:46.245Z,5.24
2017-08-19T00:23:51.265Z,5.10
2017-08-19T00:23:56.261Z,5.07
2017-08-19T00:24:00.508Z,4.87
2017-08-19T00:24:04.763Z,4.85
2017-08-19T00:24:09.023Z,4.87
2017-08-19T00:24:13.271Z,4.70
2017-08-19T00:24:17.509Z,4.70
2017-08-19T00:24:21.742Z,4.70
2017-08-19T00:24:25.993Z,4.80
2017-08-19T00:24:30.997Z,4.80
2017-08-19T00:24:35.251Z,4.77
2017-08-19T00:24:39.715Z,4.70
2017-08-19T00:24:43.970Z,4.87
2017-08-19T00:24:48.223Z,4.90
2017-08-19T00:24:52.457Z,5.00
2017-08-19T00:24:56.707Z,4.90
2017-08-19T00:25:01.719Z,5.00
2017-08-19T00:25:05.992Z,5.00
2017-08-19T00:25:10.527Z,5.00
2017-08-19T00:25:15.551Z,5.03
2017-08-19T00:25:20.597Z,5.00
2017-08-19T00:25:24.825Z,4.93
2017-08-19T00:25:29.079Z,4.80
2017-08-19T00:25:33.305Z,4.85
2017-08-19T00:25:37.575Z,4.90
2017-08-19T00:25:41.828Z,4.90
2017-08-19T00:25:46.054Z,4.70
2017-08-19T00:25:51.069Z,4.55
2017-08-19T00:25:55.304Z,4.50
2017-08-19T00:25:59.532Z,4.43
2017-08-19T00:26:03.779Z,4.30
2017-08-19T00:26:08.791Z,4.30
2017-08-19T00:26:13.804Z,4.30
2017-08-19T00:26:18.025Z,4.30
2017-08-19T00:26:22.257Z,4.20
2017-08-19T00:26:26.511Z,4.30
2017-08-19T00:26:31.532Z,4.40
2017-08-19T00:26:36.547Z,4.50
2017-08-19T00:26:40.848Z,4.60
2017-08-19T00:26:45.860Z,4.65
2017-08-19T00:26:50.081Z,4.90
2017-08-19T00:26:54.340Z,4.97
2017-08-19T00:26:58.583Z,5.10
2017-08-19T00:27:02.832Z,5.15
2017-08-19T00:27:07.075Z,5.35
2017-08-19T00:27:12.076Z,5.30
2017-08-19T00:27:17.065Z,5.30
2017-08-19T00:27:21.306Z,5.37
2017-08-19T00:27:25.568Z,5.30
2017-08-19T00:27:29.790Z,5.30
2017-08-19T00:27:34.022Z,5.20
2017-08-19T00:27:38.267Z,5.23
2017-08-19T00:27:42.505Z,5.10
2017-08-19T00:27:46.747Z,5.00
2017-08-19T00:27:50.987Z,5.10
2017-08-19T00:27:56.012Z,5.03
2017-08-19T00:28:00.221Z,4.90
2017-08-19T00:28:04.449Z,4.85
2017-08-19T00:28:08.699Z,4.65
2017-08-19T00:28:13.719Z,4.60
2017-08-19T00:28:17.937Z,4.60
2017-08-19T00:28:22.199Z,4.50
2017-08-19T00:28:26.428Z,4.50
2017-08-19T00:28:32.255Z,4.40
2017-08-19T00:28:37.245Z,4.37
2017-08-19T00:28:41.492Z,4.40
2017-08-19T00:28:46.739Z,4.40
2017-08-19T00:28:50.986Z,4.30
2017-08-19T00:28:56.453Z,4.35
2017-08-19T00:29:00.677Z,4.40
2017-08-19T00:29:04.953Z,4.50
2017-08-19T00:29:10.192Z,4.65
2017-08-19T00:29:14.432Z,4.60
2017-08-19T00:29:18.661Z,4.70
2017-08-19T00:29:22.905Z,4.87
2017-08-19T00:29:27.134Z,5.00
2017-08-19T00:29:32.148Z,5.10
2017-08-19T00:29:36.411Z,5.10
2017-08-19T00:29:40.664Z,5.10
2017-08-19T00:29:44.905Z,5.05
2017-08-19T00:29:49.149Z,5.00
2017-08-19T00:29:53.374Z,5.10
2017-08-19T00:29:57.606Z,5.00
2017-08-19T00:30:01.851Z,5.05
2017-08-19T00:30:06.856Z,5.10
2017-08-19T00:30:11.078Z,4.90
2017-08-19T00:30:16.088Z,4.90
2017-08-19T00:30:20.383Z,5.00
2017-08-19T00:30:24.622Z,5.00
2017-08-19T00:30:28.863Z,5.10
2017-08-19T00:30:33.138Z,5.10
2017-08-19T00:30:37.379Z,5.20
2017-08-19T00:30:41.633Z,5.20
2017-08-19T00:30:45.877Z,5.20
2017-08-19T00:30:50.099Z,5.30
2017-08-19T00:30:54.360Z,5.40
2017-08-19T00:30:58.605Z,5.30
2017-08-19T00:31:02.841Z,5.20
2017-08-19T00:31:07.120Z,5.20
2017-08-19T00:31:11.347Z,5.20
2017-08-19T00:31:15.578Z,5.15
2017-08-19T00:31:20.577Z,5.15
2017-08-19T00:31:24.835Z,5.10
2017-08-19T00:31:29.075Z,4.95
2017-08-19T00:31:33.324Z,4.90
2017-08-19T00:31:37.573Z,4.80
2017-08-19T00:31:41.793Z,4.90
2017-08-19T00:31:46.808Z,4.90
2017-08-19T00:31:51.033Z,4.77
2017-08-19T00:31:55.287Z,4.70
2017-08-19T00:31:59.513Z,4.70
2017-08-19T00:32:03.760Z,4.70
2017-08-19T00:32:08.005Z,4.80
2017-08-19T00:32:12.245Z,4.80
2017-08-19T00:32:16.479Z,4.90
2017-08-19T00:32:20.732Z,4.80
2017-08-19T00:32:24.973Z,5.00
2017-08-19T00:32:29.223Z,5.00
2017-08-19T00:32:34.246Z,5.00
2017-08-19T00:32:38.477Z,5.00
2017-08-19T00:32:42.719Z,4.90
2017-08-19T00:32:46.956Z,4.90
2017-08-19T00:32:51.215Z,5.00
2017-08-19T00:32:55.443Z,4.95
2017-08-19T00:32:59.959Z,4.95
2017-08-19T00:33:04.190Z,5.00
2017-08-19T00:33:08.423Z,4.95
2017-08-19T00:33:13.439Z,4.95
2017-08-19T00:33:17.665Z,5.03
2017-08-19T00:33:21.910Z,4.87
2017-08-19T00:33:26.150Z,4.80
2017-08-19T00:33:31.153Z,4.80
2017-08-19T00:33:35.933Z,4.90
2017-08-19T00:33:40.181Z,4.97
2017-08-19T00:33:45.199Z,5.15
2017-08-19T00:33:50.222Z,5.10
2017-08-19T00:33:54.450Z,5.10
2017-08-19T00:33:58.703Z,5.20
2017-08-19T00:34:02.963Z,5.20
2017-08-19T00:34:07.231Z,5.20
2017-08-19T00:34:11.462Z,5.30
2017-08-19T00:34:15.698Z,5.23
2017-08-19T00:34:20.725Z,5.40
2017-08-19T00:34:24.963Z,5.60
2017-08-19T00:34:29.199Z,5.60
2017-08-19T00:34:33.447Z,5.50
2017-08-19T00:34:37.697Z,5.50
2017-08-19T00:34:41.938Z,5.30
2017-08-19T00:34:46.183Z,5.10
2017-08-19T00:34:51.066Z,5.10
2017-08-19T00:34:55.322Z,5.00
2017-08-19T00:34:59.553Z,5.00
2017-08-19T00:35:03.781Z,5.20
2017-08-19T00:35:08.010Z,5.25
2017-08-19T00:35:12.255Z,5.30
2017-08-19T00:35:16.494Z,5.27
2017-08-19T00:35:20.737Z,5.20
2017-08-19T00:35:25.767Z,5.20
2017-08-19T00:35:30.742Z,5.03
2017-08-19T00:35:34.965Z,5.00
2017-08-19T00:35:39.969Z,5.00
2017-08-19T00:35:44.982Z,5.03
2017-08-19T00:35:49.231Z,5.23
2017-08-19T00:35:53.478Z,5.20
2017-08-19T00:35:57.731Z,5.30
2017-08-19T00:36:04.158Z,5.15
2017-08-19T00:36:08.447Z,5.08
2017-08-19T00:36:12.740Z,4.95
2017-08-19T00:36:16.984Z,4.90
2017-08-19T00:36:21.226Z,4.57
2017-08-19T00:36:25.472Z,4.50
2017-08-19T00:36:29.697Z,4.75
2017-08-19T00:36:33.933Z,4.90
2017-08-19T00:36:38.170Z,5.10
2017-08-19T00:36:42.419Z,5.50
2017-08-19T00:36:46.660Z,5.40
2017-08-19T00:36:51.269Z,5.40
2017-08-19T00:36:56.258Z,5.40
2017-08-19T00:37:00.473Z,5.50
2017-08-19T00:37:04.746Z,5.40
2017-08-19T00:37:08.961Z,5.43
2017-08-19T00:37:13.983Z,5.60
2017-08-19T00:37:18.986Z,5.77
2017-08-19T00:37:23.236Z,5.90
2017-08-19T00:37:27.465Z,5.75
2017-08-19T00:37:31.698Z,5.50
2017-08-19T00:37:36.707Z,5.47
2017-08-19T00:37:40.955Z,5.03
2017-08-19T00:37:45.215Z,5.00
2017-08-19T00:37:49.463Z,5.10
2017-08-19T00:37:53.708Z,4.90
2017-08-19T00:37:57.954Z,4.77
2017-08-19T00:38:02.542Z,4.75
2017-08-19T00:38:06.785Z,4.83
2017-08-19T00:38:11.029Z,4.65
2017-08-19T00:38:16.039Z,4.55
2017-08-19T00:38:21.049Z,4.60
2017-08-19T00:38:25.284Z,4.77
2017-08-19T00:38:29.560Z,5.15
2017-08-19T00:38:34.403Z,5.50
2017-08-19T00:38:38.695Z,5.77
2017-08-19T00:38:43.249Z,5.90
2017-08-19T00:38:48.343Z,6.30
2017-08-19T00:38:52.549Z,6.87
2017-08-19T00:38:56.807Z,7.45
2017-08-19T00:39:01.042Z,7.60
2017-08-19T00:39:05.278Z,7.80
2017-08-19T00:39:09.568Z,8.00
2017-08-19T00:39:13.798Z,8.15
2017-08-19T00:39:18.809Z,8.30
2017-08-19T00:39:23.840Z,8.30
2017-08-19T00:39:28.049Z,8.33
2017-08-19T00:39:32.318Z,8.70
2017-08-19T00:39:37.369Z,9.40
2017-08-19T00:39:41.615Z,9.57
2017-08-19T00:39:46.983Z,9.53
2017-08-19T00:39:51.372Z,9.40
2017-08-19T00:39:55.624Z,9.20
2017-08-19T00:39:59.973Z,9.00
2017-08-19T00:40:04.999Z,8.90
2017-08-19T00:40:10.016Z,8.83
2017-08-19T00:40:14.421Z,8.90
2017-08-19T00:40:19.439Z,8.90
2017-08-19T00:40:24.451Z,8.77
2017-08-19T00:40:29.468Z,8.40
2017-08-19T00:40:34.475Z,7.77
2017-08-19T00:40:38.715Z,7.03
2017-08-19T00:40:43.034Z,6.75
2017-08-19T00:40:47.295Z,6.43
2017-08-19T00:40:52.315Z,6.30
2017-08-19T00:40:56.565Z,6.27
2017-08-19T00:41:00.820Z,6.00
2017-08-19T00:41:05.157Z,6.00
2017-08-19T00:41:09.411Z,5.90
2017-08-19T00:41:13.645Z,5.85
2017-08-19T00:41:17.896Z,6.15
2017-08-19T00:41:22.901Z,6.60
2017-08-19T00:41:27.936Z,6.80
2017-08-19T00:41:32.938Z,6.70
2017-08-19T00:41:37.191Z,6.77
2017-08-19T00:41:41.447Z,6.90
2017-08-19T00:41:46.896Z,7.10
2017-08-19T00:41:51.614Z,7.07
2017-08-19T00:41:55.880Z,6.90
2017-08-19T00:42:00.134Z,7.10
2017-08-19T00:42:04.370Z,7.00
2017-08-19T00:42:08.646Z,7.00
2017-08-19T00:42:12.861Z,7.10
2017-08-19T00:42:17.111Z,7.25
2017-08-19T00:42:21.367Z,7.50
2017-08-19T00:42:25.605Z,7.70
2017-08-19T00:42:29.862Z,7.87
2017-08-19T00:42:34.142Z,8.10
2017-08-19T00:42:38.380Z,8.05
2017-08-19T00:42:42.658Z,8.00
2017-08-19T00:42:46.907Z,8.15
2017-08-19T00:42:52.079Z,8.20
2017-08-19T00:42:56.334Z,8.20
2017-08-19T00:43:00.585Z,8.20
2017-08-19T00:43:04.879Z,8.25
2017-08-19T00:43:09.108Z,8.15
2017-08-19T00:43:14.117Z,8.05
2017-08-19T00:43:19.136Z,7.40
2017-08-19T00:43:23.371Z,6.53
2017-08-19T00:43:27.637Z,6.30
2017-08-19T00:43:31.865Z,6.25
2017-08-19T00:43:36.101Z,6.20
2017-08-19T00:43:40.361Z,6.30
2017-08-19T00:43:44.627Z,6.20
2017-08-19T00:43:48.964Z,6.20
2017-08-19T00:43:55.826Z,6.60
2017-08-19T00:44:01.280Z,7.02
2017-08-19T00:44:05.534Z,7.18
2017-08-19T00:44:11.009Z,7.45
2017-08-19T00:44:15.254Z,7.60
2017-08-19T00:44:20.261Z,7.70
2017-08-19T00:44:24.509Z,7.80
2017-08-19T00:44:28.774Z,7.80
2017-08-19T00:44:33.029Z,7.70
2017-08-19T00:44:37.273Z,7.60
2017-08-19T00:44:42.307Z,7.55
2017-08-19T00:44:46.555Z,7.47
2017-08-19T00:44:50.785Z,7.25
2017-08-19T00:44:55.052Z,6.95
2017-08-19T00:44:59.757Z,6.83
2017-08-19T00:45:03.999Z,6.80
2017-08-19T00:45:09.606Z,6.60
2017-08-19T00:45:13.844Z,6.50
2017-08-19T00:45:18.851Z,6.60
2017-08-19T00:45:23.849Z,6.30
2017-08-19T00:45:28.106Z,6.20
2017-08-19T00:45:32.342Z,6.05
2017-08-19T00:45:36.596Z,6.00
2017-08-19T00:45:40.844Z,5.95
2017-08-19T00:45:45.104Z,5.90
2017-08-19T00:45:49.360Z,5.85
2017-08-19T00:45:53.603Z,5.65
2017-08-19T00:45:57.863Z,5.47
2017-08-19T00:46:02.873Z,5.35
2017-08-19T00:46:07.679Z,5.27
2017-08-19T00:46:11.913Z,5.10
2017-08-19T00:46:16.670Z,4.85
2017-08-19T00:46:20.914Z,5.10
2017-08-19T00:46:25.174Z,5.55
2017-08-19T00:46:29.405Z,5.95
2017-08-19T00:46:33.667Z,6.45
2017-08-19T00:46:37.944Z,6.50
2017-08-19T00:46:43.145Z,6.45
2017-08-19T00:46:47.394Z,6.40
2017-08-19T00:46:51.642Z,6.50
2017-08-19T00:46:55.893Z,6.60
2017-08-19T00:47:00.139Z,6.70
2017-08-19T00:47:04.369Z,6.70
2017-08-19T00:47:09.361Z,6.77
2017-08-19T00:47:13.744Z,6.90
2017-08-19T00:47:18.755Z,6.75
2017-08-19T00:47:28.014Z,6.43
2017-08-19T00:47:32.251Z,5.77
2017-08-19T00:47:36.495Z,5.33
2017-08-19T00:47:40.744Z,5.55
2017-08-19T00:47:45.011Z,5.70
2017-08-19T00:47:49.225Z,5.55
2017-08-19T00:47:53.449Z,5.43
2017-08-19T00:47:57.702Z,5.50
2017-08-19T00:48:01.956Z,5.50
2017-08-19T00:48:06.181Z,5.60
2017-08-19T00:48:11.196Z,5.57
2017-08-19T00:48:17.370Z,5.53
2017-08-19T00:48:21.609Z,5.70
2017-08-19T00:48:29.583Z,5.60
2017-08-19T00:48:33.823Z,5.68
2017-08-19T00:48:38.848Z,6.30
2017-08-19T00:48:43.094Z,6.27
2017-08-19T00:48:47.352Z,6.30
2017-08-19T00:48:51.605Z,6.50
2017-08-19T00:48:57.259Z,6.40
2017-08-19T00:49:01.511Z,6.20
2017-08-19T00:49:05.755Z,6.10
2017-08-19T00:49:10.003Z,6.20
2017-08-19T00:49:14.283Z,6.20
2017-08-19T00:49:18.517Z,6.35
2017-08-19T00:49:22.753Z,6.65
2017-08-19T00:49:27.757Z,7.10
2017-08-19T00:49:32.017Z,7.37
2017-08-19T00:49:36.266Z,6.90
2017-08-19T00:49:40.807Z,6.90
2017-08-19T00:49:45.058Z,6.93
2017-08-19T00:49:49.312Z,7.10
2017-08-19T00:49:53.554Z,7.30
2017-08-19T00:49:57.797Z,7.45
2017-08-19T00:50:02.793Z,7.60
2017-08-19T00:50:07.797Z,7.47
2017-08-19T00:50:12.051Z,7.30
2017-08-19T00:50:16.304Z,7.30
2017-08-19T00:50:20.577Z,7.25
2017-08-19T00:50:24.841Z,7.00
2017-08-19T00:50:29.201Z,6.65
2017-08-19T00:50:33.429Z,6.40
2017-08-19T00:50:37.678Z,6.45
2017-08-19T00:50:41.925Z,6.37
2017-08-19T00:50:46.240Z,6.10
2017-08-19T00:50:50.483Z,5.85
2017-08-19T00:50:54.747Z,5.70
2017-08-19T00:50:58.981Z,5.60
2017-08-19T00:51:03.223Z,5.60
2017-08-19T00:51:07.467Z,5.80
2017-08-19T00:51:11.721Z,5.83
2017-08-19T00:51:16.735Z,5.60
2017-08-19T00:51:21.747Z,5.70
2017-08-19T00:51:26.753Z,5.63
2017-08-19T00:51:30.993Z,5.83
2017-08-19T00:51:35.217Z,5.70
2017-08-19T00:51:39.461Z,5.60
2017-08-19T00:51:44.458Z,5.60
2017-08-19T00:51:48.722Z,5.60
2017-08-19T00:51:52.968Z,5.50
2017-08-19T00:51:57.208Z,5.40
2017-08-19T00:52:01.452Z,5.50
2017-08-19T00:52:05.694Z,5.80
2017-08-19T00:52:09.935Z,6.00
2017-08-19T00:52:14.161Z,6.10
2017-08-19T00:52:18.390Z,6.03
2017-08-19T00:52:22.659Z,6.00
2017-08-19T00:52:26.895Z,5.85
2017-08-19T00:52:31.128Z,5.70
2017-08-19T00:52:35.374Z,5.67
2017-08-19T00:52:39.620Z,5.55
2017-08-19T00:52:43.867Z,5.60
2017-08-19T00:52:48.098Z,5.55
2017-08-19T00:52:52.342Z,5.87
2017-08-19T00:52:56.580Z,6.05
2017-08-19T00:53:01.591Z,6.10
2017-08-19T00:53:06.045Z,5.77
2017-08-19T00:53:10.290Z,5.60
2017-08-19T00:53:15.305Z,5.70
2017-08-19T00:53:19.538Z,5.67
2017-08-19T00:53:23.808Z,5.60
2017-08-19T00:53:29.086Z,5.60
2017-08-19T00:53:33.339Z,5.60
2017-08-19T00:53:38.356Z,5.60
2017-08-19T00:53:43.414Z,5.73
2017-08-19T00:53:47.663Z,5.87
2017-08-19T00:53:51.909Z,5.60
2017-08-19T00:53:56.149Z,5.53
2017-08-19T00:54:00.385Z,5.35
2017-08-19T00:54:04.639Z,5.15
2017-08-19T00:54:08.882Z,5.00
2017-08-19T00:54:13.898Z,4.87
2017-08-19T00:54:18.901Z,4.73
2017-08-19T00:54:23.936Z,4.73
2017-08-19T00:54:28.928Z,4.97
2017-08-19T00:54:35.051Z,5.15
2017-08-19T00:54:39.295Z,5.90
2017-08-19T00:54:43.543Z,5.80
2017-08-19T00:54:48.033Z,5.95
2017-08-19T00:54:52.488Z,6.27
2017-08-19T00:54:56.732Z,6.65
2017-08-19T00:55:00.988Z,6.97
2017-08-19T00:55:06.013Z,7.10
2017-08-19T00:55:11.018Z,7.13
2017-08-19T00:55:16.029Z,7.37
2017-08-19T00:55:20.266Z,7.60
2017-08-19T00:55:24.707Z,7.80
2017-08-19T00:55:28.983Z,7.90
2017-08-19T00:55:33.241Z,8.30
2017-08-19T00:55:37.488Z,8.10
2017-08-19T00:55:41.733Z,8.20
2017-08-19T00:55:45.987Z,8.20
2017-08-19T00:55:50.221Z,8.05
2017-08-19T00:55:54.457Z,8.00
2017-08-19T00:55:58.701Z,7.73
2017-08-19T00:56:02.967Z,8.05
2017-08-19T00:56:07.194Z,8.40
2017-08-19T00:56:11.429Z,8.90
2017-08-19T00:56:15.695Z,9.13
2017-08-19T00:56:19.925Z,9.25
2017-08-19T00:56:24.166Z,8.95
2017-08-19T00:56:28.438Z,8.67
2017-08-19T00:56:32.675Z,8.25
2017-08-19T00:56:36.920Z,7.80
2017-08-19T00:56:41.164Z,7.70
2017-08-19T00:56:45.419Z,7.53
2017-08-19T00:56:49.672Z,7.40
2017-08-19T00:56:53.924Z,7.30
2017-08-19T00:56:58.176Z,7.20
2017-08-19T00:57:02.418Z,7.10
2017-08-19T00:57:06.658Z,6.70
2017-08-19T00:57:10.893Z,6.15
2017-08-19T00:57:15.143Z,5.80
2017-08-19T00:57:20.160Z,5.33
2017-08-19T00:57:25.162Z,5.30
2017-08-19T00:57:29.415Z,5.33
2017-08-19T00:57:33.656Z,5.60
2017-08-19T00:57:37.895Z,6.05
2017-08-19T00:57:42.129Z,6.40
2017-08-19T00:57:46.397Z,6.85
2017-08-19T00:57:50.625Z,7.10
2017-08-19T00:57:54.874Z,7.20
2017-08-19T00:57:59.145Z,7.40
2017-08-19T00:58:03.391Z,7.50
2017-08-19T00:58:07.647Z,7.85
2017-08-19T00:58:11.883Z,8.25
2017-08-19T00:58:16.147Z,8.80
2017-08-19T00:58:20.392Z,9.15
2017-08-19T00:58:24.626Z,9.20
2017-08-19T00:58:28.879Z,9.30
2017-08-19T00:58:33.139Z,9.17
2017-08-19T00:58:37.370Z,8.80
2017-08-19T00:58:42.383Z,8.55
2017-08-19T00:58:47.432Z,8.30
2017-08-19T00:58:52.412Z,7.90
2017-08-19T00:58:57.420Z,7.57
2017-08-19T00:59:02.154Z,7.33
2017-08-19T00:59:07.163Z,7.47
2017-08-19T00:59:12.166Z,7.50
2017-08-19T00:59:16.697Z,7.33
2017-08-19T00:59:20.916Z,7.10
2017-08-19T00:59:25.162Z,7.20
2017-08-19T00:59:29.394Z,7.15
2017-08-19T00:59:33.633Z,7.00
2017-08-19T00:59:37.896Z,6.90